sensor_id;sensor_type;location;lat;lon;timestamp;P1;durP1;ratioP1;P2;durP2;ratioP2
33327;SDS011;19692;52.998;9.116;2023-06-22T00:01:58;10.27;;;9.37;;
33327;SDS011;19692;52.998;9.116;2023-06-22T00:04:24;10.37;;;9.37;;
33327;SDS011;19692;52.998;9.116;2023-06-22T00:06:50;9.60;;;8.70;;
33327;SDS011;19692;52.998;9.116;2023-06-22T00:09:16;9.90;;;9.00;;
33327;SDS011;19692;52.998;9.116;2023-06-22T00:11:42;10.00;;;8.67;;
33327;SDS011;19692;52.998;9.116;2023-06-22T00:14:07;9.33;;;8.33;;
33327;SDS011;19692;52.998;9.116;2023-06-22T00:16:33;8.40;;;7.63;;
33327;SDS011;19692;52.998;9.116;2023-06-22T00:18:59;7.70;;;7.00;;
33327;SDS011;19692;52.998;9.116;2023-06-22T00:21:28;8.50;;;7.80;;
33327;SDS011;19692;52.998;9.116;2023-06-22T00:23:55;9.07;;;8.27;;
33327;SDS011;19692;52.998;9.116;2023-06-22T00:26:22;8.57;;;7.87;;
33327;SDS011;19692;52.998;9.116;2023-06-22T00:28:47;8.90;;;8.10;;
33327;SDS011;19692;52.998;9.116;2023-06-22T00:31:13;9.50;;;8.13;;
33327;SDS011;19692;52.998;9.116;2023-06-22T00:33:39;9.77;;;8.80;;
33327;SDS011;19692;52.998;9.116;2023-06-22T00:36:05;9.00;;;8.20;;
33327;SDS011;19692;52.998;9.116;2023-06-22T00:38:32;8.87;;;7.97;;
33327;SDS011;19692;52.998;9.116;2023-06-22T00:40:59;9.43;;;8.43;;
33327;SDS011;19692;52.998;9.116;2023-06-22T00:43:24;9.10;;;8.30;;
33327;SDS011;19692;52.998;9.116;2023-06-22T00:45:50;9.30;;;8.40;;
33327;SDS011;19692;52.998;9.116;2023-06-22T00:48:16;8.60;;;7.80;;
33327;SDS011;19692;52.998;9.116;2023-06-22T00:50:42;9.00;;;8.20;;
33327;SDS011;19692;52.998;9.116;2023-06-22T00:53:08;8.53;;;7.73;;
33327;SDS011;19692;52.998;9.116;2023-06-22T00:55:38;8.90;;;8.10;;
33327;SDS011;19692;52.998;9.116;2023-06-22T00:58:11;8.73;;;7.83;;
33327;SDS011;19692;52.998;9.116;2023-06-22T01:00:38;8.50;;;7.60;;
33327;SDS011;19692;52.998;9.116;2023-06-22T01:03:06;9.67;;;8.50;;
33327;SDS011;19692;52.998;9.116;2023-06-22T01:05:35;9.53;;;8.60;;
33327;SDS011;19692;52.998;9.116;2023-06-22T01:18:50;10.50;;;8.77;;
33327;SDS011;19692;52.998;9.116;2023-06-22T01:21:21;9.90;;;9.00;;
33327;SDS011;19692;52.998;9.116;2023-06-22T01:23:51;10.40;;;9.40;;
33327;SDS011;19692;52.998;9.116;2023-06-22T01:26:36;9.50;;;8.50;;
33327;SDS011;19692;52.998;9.116;2023-06-22T01:29:19;9.90;;;9.00;;
33327;SDS011;19692;52.998;9.116;2023-06-22T01:31:46;10.87;;;9.77;;
33327;SDS011;19692;52.998;9.116;2023-06-22T01:34:14;10.40;;;9.47;;
33327;SDS011;19692;52.998;9.116;2023-06-22T01:36:41;9.77;;;8.83;;
33327;SDS011;19692;52.998;9.116;2023-06-22T01:39:08;9.60;;;8.70;;
33327;SDS011;19692;52.998;9.116;2023-06-22T01:41:36;11.10;;;10.10;;
33327;SDS011;19692;52.998;9.116;2023-06-22T01:44:06;10.63;;;9.50;;
33327;SDS011;19692;52.998;9.116;2023-06-22T01:46:34;10.80;;;9.70;;
33327;SDS011;19692;52.998;9.116;2023-06-22T01:49:04;11.30;;;10.10;;
33327;SDS011;19692;52.998;9.116;2023-06-22T01:51:31;11.60;;;10.50;;
33327;SDS011;19692;52.998;9.116;2023-06-22T01:53:57;11.97;;;10.77;;
33327;SDS011;19692;52.998;9.116;2023-06-22T01:56:23;12.03;;;10.87;;
33327;SDS011;19692;52.998;9.116;2023-06-22T01:59:04;11.53;;;10.33;;
33327;SDS011;19692;52.998;9.116;2023-06-22T02:01:45;12.33;;;11.13;;
33327;SDS011;19692;52.998;9.116;2023-06-22T02:04:20;13.60;;;12.30;;
33327;SDS011;19692;52.998;9.116;2023-06-22T02:06:51;14.57;;;13.10;;
33327;SDS011;19692;52.998;9.116;2023-06-22T02:09:22;14.87;;;13.37;;
33327;SDS011;19692;52.998;9.116;2023-06-22T02:11:48;15.20;;;13.70;;
33327;SDS011;19692;52.998;9.116;2023-06-22T02:14:19;16.13;;;14.63;;
33327;SDS011;19692;52.998;9.116;2023-06-22T02:16:47;16.80;;;15.17;;
33327;SDS011;19692;52.998;9.116;2023-06-22T02:19:12;15.83;;;14.27;;
33327;SDS011;19692;52.998;9.116;2023-06-22T02:21:40;16.07;;;14.57;;
33327;SDS011;19692;52.998;9.116;2023-06-22T02:24:06;18.63;;;16.13;;
33327;SDS011;19692;52.998;9.116;2023-06-22T02:26:32;17.67;;;15.87;;
33327;SDS011;19692;52.998;9.116;2023-06-22T02:28:58;18.20;;;16.40;;
33327;SDS011;19692;52.998;9.116;2023-06-22T02:31:24;17.80;;;16.00;;
33327;SDS011;19692;52.998;9.116;2023-06-22T02:33:55;19.23;;;16.93;;
33327;SDS011;19692;52.998;9.116;2023-06-22T02:36:24;17.13;;;15.53;;
33327;SDS011;19692;52.998;9.116;2023-06-22T02:38:51;17.87;;;16.07;;
33327;SDS011;19692;52.998;9.116;2023-06-22T02:41:18;19.07;;;17.13;;
33327;SDS011;19692;52.998;9.116;2023-06-22T02:43:47;19.23;;;17.33;;
33327;SDS011;19692;52.998;9.116;2023-06-22T02:46:13;18.47;;;16.67;;
33327;SDS011;19692;52.998;9.116;2023-06-22T02:48:39;17.83;;;16.13;;
33327;SDS011;19692;52.998;9.116;2023-06-22T02:51:05;17.70;;;16.00;;
33327;SDS011;19692;52.998;9.116;2023-06-22T02:53:32;18.20;;;16.43;;
33327;SDS011;19692;52.998;9.116;2023-06-22T02:55:57;18.57;;;16.73;;
33327;SDS011;19692;52.998;9.116;2023-06-22T02:58:23;18.77;;;16.93;;
33327;SDS011;19692;52.998;9.116;2023-06-22T03:00:49;17.73;;;16.03;;
33327;SDS011;19692;52.998;9.116;2023-06-22T03:03:18;18.50;;;16.60;;
33327;SDS011;19692;52.998;9.116;2023-06-22T03:05:47;17.03;;;15.33;;
33327;SDS011;19692;52.998;9.116;2023-06-22T03:08:12;19.40;;;17.50;;
33327;SDS011;19692;52.998;9.116;2023-06-22T03:10:38;17.83;;;15.93;;
33327;SDS011;19692;52.998;9.116;2023-06-22T03:13:04;18.53;;;16.57;;
33327;SDS011;19692;52.998;9.116;2023-06-22T03:15:29;18.33;;;16.33;;
33327;SDS011;19692;52.998;9.116;2023-06-22T03:17:56;18.53;;;16.73;;
33327;SDS011;19692;52.998;9.116;2023-06-22T03:20:22;18.60;;;16.80;;
33327;SDS011;19692;52.998;9.116;2023-06-22T03:22:48;17.80;;;15.93;;
33327;SDS011;19692;52.998;9.116;2023-06-22T03:25:14;17.63;;;15.93;;
33327;SDS011;19692;52.998;9.116;2023-06-22T03:27:40;18.03;;;16.23;;
33327;SDS011;19692;52.998;9.116;2023-06-22T03:30:09;17.23;;;15.63;;
33327;SDS011;19692;52.998;9.116;2023-06-22T03:32:36;17.47;;;15.80;;
33327;SDS011;19692;52.998;9.116;2023-06-22T03:35:02;18.57;;;16.87;;
33327;SDS011;19692;52.998;9.116;2023-06-22T03:37:28;18.20;;;16.30;;
33327;SDS011;19692;52.998;9.116;2023-06-22T03:39:54;19.03;;;17.00;;
33327;SDS011;19692;52.998;9.116;2023-06-22T03:42:19;18.10;;;16.13;;
33327;SDS011;19692;52.998;9.116;2023-06-22T03:44:45;18.37;;;16.63;;
33327;SDS011;19692;52.998;9.116;2023-06-22T03:47:11;17.47;;;15.77;;
33327;SDS011;19692;52.998;9.116;2023-06-22T03:49:37;17.87;;;16.17;;
33327;SDS011;19692;52.998;9.116;2023-06-22T03:52:03;17.53;;;15.83;;
33327;SDS011;19692;52.998;9.116;2023-06-22T03:54:29;16.77;;;15.10;;
33327;SDS011;19692;52.998;9.116;2023-06-22T03:56:58;16.97;;;15.37;;
33327;SDS011;19692;52.998;9.116;2023-06-22T03:59:24;18.23;;;16.53;;
33327;SDS011;19692;52.998;9.116;2023-06-22T04:01:50;18.50;;;16.50;;
33327;SDS011;19692;52.998;9.116;2023-06-22T04:04:17;17.77;;;15.33;;
33327;SDS011;19692;52.998;9.116;2023-06-22T04:06:43;17.10;;;15.33;;
33327;SDS011;19692;52.998;9.116;2023-06-22T04:09:09;16.93;;;15.27;;
33327;SDS011;19692;52.998;9.116;2023-06-22T04:11:35;16.57;;;14.97;;
33327;SDS011;19692;52.998;9.116;2023-06-22T04:14:00;17.97;;;16.20;;
33327;SDS011;19692;52.998;9.116;2023-06-22T04:16:26;16.80;;;15.10;;
33327;SDS011;19692;52.998;9.116;2023-06-22T04:18:52;16.97;;;15.23;;
33327;SDS011;19692;52.998;9.116;2023-06-22T04:21:18;17.83;;;16.03;;
33327;SDS011;19692;52.998;9.116;2023-06-22T04:23:45;17.03;;;15.27;;
33327;SDS011;19692;52.998;9.116;2023-06-22T04:26:11;17.53;;;15.57;;
33327;SDS011;19692;52.998;9.116;2023-06-22T04:28:39;16.83;;;15.07;;
33327;SDS011;19692;52.998;9.116;2023-06-22T04:31:05;16.23;;;14.67;;
33327;SDS011;19692;52.998;9.116;2023-06-22T04:33:31;17.03;;;15.33;;
33327;SDS011;19692;52.998;9.116;2023-06-22T04:35:57;16.07;;;14.53;;
33327;SDS011;19692;52.998;9.116;2023-06-22T04:38:26;16.37;;;14.77;;
33327;SDS011;19692;52.998;9.116;2023-06-22T04:40:51;15.13;;;13.73;;
33327;SDS011;19692;52.998;9.116;2023-06-22T04:43:18;15.97;;;14.27;;
33327;SDS011;19692;52.998;9.116;2023-06-22T04:45:44;15.87;;;14.27;;
33327;SDS011;19692;52.998;9.116;2023-06-22T04:48:10;15.70;;;14.10;;
33327;SDS011;19692;52.998;9.116;2023-06-22T04:50:40;18.17;;;14.07;;
33327;SDS011;19692;52.998;9.116;2023-06-22T04:53:07;15.07;;;13.50;;
33327;SDS011;19692;52.998;9.116;2023-06-22T04:55:34;15.37;;;13.77;;
33327;SDS011;19692;52.998;9.116;2023-06-22T04:58:03;15.73;;;14.30;;
33327;SDS011;19692;52.998;9.116;2023-06-22T05:00:30;15.07;;;13.47;;
33327;SDS011;19692;52.998;9.116;2023-06-22T05:02:56;15.47;;;13.90;;
33327;SDS011;19692;52.998;9.116;2023-06-22T05:05:23;15.67;;;14.17;;
33327;SDS011;19692;52.998;9.116;2023-06-22T05:07:50;15.50;;;14.00;;
33327;SDS011;19692;52.998;9.116;2023-06-22T05:10:18;15.30;;;13.67;;
33327;SDS011;19692;52.998;9.116;2023-06-22T05:12:45;14.97;;;13.37;;
33327;SDS011;19692;52.998;9.116;2023-06-22T05:15:11;15.73;;;14.03;;
33327;SDS011;19692;52.998;9.116;2023-06-22T05:17:37;14.63;;;13.10;;
33327;SDS011;19692;52.998;9.116;2023-06-22T05:20:10;15.67;;;13.53;;
33327;SDS011;19692;52.998;9.116;2023-06-22T05:22:37;15.30;;;12.80;;
33327;SDS011;19692;52.998;9.116;2023-06-22T05:25:07;13.87;;;12.53;;
33327;SDS011;19692;52.998;9.116;2023-06-22T05:27:34;14.27;;;12.80;;
33327;SDS011;19692;52.998;9.116;2023-06-22T05:30:04;12.93;;;11.63;;
33327;SDS011;19692;52.998;9.116;2023-06-22T05:32:32;13.53;;;12.13;;
33327;SDS011;19692;52.998;9.116;2023-06-22T05:34:58;13.47;;;12.10;;
33327;SDS011;19692;52.998;9.116;2023-06-22T05:37:24;12.27;;;10.97;;
33327;SDS011;19692;52.998;9.116;2023-06-22T05:39:51;13.13;;;11.83;;
33327;SDS011;19692;52.998;9.116;2023-06-22T05:42:16;11.83;;;10.47;;
33327;SDS011;19692;52.998;9.116;2023-06-22T05:44:42;12.63;;;10.90;;
33327;SDS011;19692;52.998;9.116;2023-06-22T05:47:08;11.40;;;10.30;;
33327;SDS011;19692;52.998;9.116;2023-06-22T05:49:34;11.27;;;10.17;;
33327;SDS011;19692;52.998;9.116;2023-06-22T05:52:00;10.77;;;9.73;;
33327;SDS011;19692;52.998;9.116;2023-06-22T05:54:27;10.67;;;9.67;;
33327;SDS011;19692;52.998;9.116;2023-06-22T05:56:53;9.90;;;9.00;;
33327;SDS011;19692;52.998;9.116;2023-06-22T05:59:19;10.20;;;9.17;;
33327;SDS011;19692;52.998;9.116;2023-06-22T06:01:45;10.10;;;9.10;;
33327;SDS011;19692;52.998;9.116;2023-06-22T06:04:14;10.97;;;8.93;;
33327;SDS011;19692;52.998;9.116;2023-06-22T06:06:42;9.80;;;8.90;;
33327;SDS011;19692;52.998;9.116;2023-06-22T06:09:14;9.87;;;8.73;;
33327;SDS011;19692;52.998;9.116;2023-06-22T06:11:45;9.40;;;8.43;;
33327;SDS011;19692;52.998;9.116;2023-06-22T06:14:20;9.37;;;8.47;;
33327;SDS011;19692;52.998;9.116;2023-06-22T06:17:01;8.90;;;7.93;;
33327;SDS011;19692;52.998;9.116;2023-06-22T06:19:41;10.03;;;7.83;;
33327;SDS011;19692;52.998;9.116;2023-06-22T06:22:24;9.03;;;7.40;;
33327;SDS011;19692;52.998;9.116;2023-06-22T06:24:57;8.87;;;7.60;;
33327;SDS011;19692;52.998;9.116;2023-06-22T06:27:26;7.77;;;6.73;;
33327;SDS011;19692;52.998;9.116;2023-06-22T06:29:54;7.43;;;6.63;;
33327;SDS011;19692;52.998;9.116;2023-06-22T06:32:20;7.20;;;6.53;;
33327;SDS011;19692;52.998;9.116;2023-06-22T06:34:45;7.13;;;6.40;;
33327;SDS011;19692;52.998;9.116;2023-06-22T06:37:11;7.17;;;6.47;;
33327;SDS011;19692;52.998;9.116;2023-06-22T06:39:37;8.30;;;6.47;;
33327;SDS011;19692;52.998;9.116;2023-06-22T06:42:05;7.13;;;6.50;;
33327;SDS011;19692;52.998;9.116;2023-06-22T06:44:31;7.00;;;6.00;;
33327;SDS011;19692;52.998;9.116;2023-06-22T06:47:00;7.33;;;6.57;;
33327;SDS011;19692;52.998;9.116;2023-06-22T06:49:28;7.00;;;6.30;;
33327;SDS011;19692;52.998;9.116;2023-06-22T06:51:57;6.50;;;5.90;;
33327;SDS011;19692;52.998;9.116;2023-06-22T06:54:26;6.40;;;5.80;;
33327;SDS011;19692;52.998;9.116;2023-06-22T06:56:55;6.30;;;5.67;;
33327;SDS011;19692;52.998;9.116;2023-06-22T06:59:24;5.93;;;5.33;;
33327;SDS011;19692;52.998;9.116;2023-06-22T07:01:54;5.20;;;4.70;;
33327;SDS011;19692;52.998;9.116;2023-06-22T07:04:25;5.57;;;4.83;;
33327;SDS011;19692;52.998;9.116;2023-06-22T07:06:53;5.83;;;4.87;;
33327;SDS011;19692;52.998;9.116;2023-06-22T07:09:27;6.27;;;5.67;;
33327;SDS011;19692;52.998;9.116;2023-06-22T07:12:01;5.53;;;5.03;;
33327;SDS011;19692;52.998;9.116;2023-06-22T07:14:27;7.07;;;5.33;;
33327;SDS011;19692;52.998;9.116;2023-06-22T07:16:56;5.13;;;4.63;;
33327;SDS011;19692;52.998;9.116;2023-06-22T07:19:42;7.50;;;5.37;;
33327;SDS011;19692;52.998;9.116;2023-06-22T07:22:15;6.10;;;5.07;;
33327;SDS011;19692;52.998;9.116;2023-06-22T07:24:41;5.37;;;4.80;;
33327;SDS011;19692;52.998;9.116;2023-06-22T07:27:20;5.13;;;4.63;;
33327;SDS011;19692;52.998;9.116;2023-06-22T07:30:00;6.03;;;4.90;;
33327;SDS011;19692;52.998;9.116;2023-06-22T07:32:34;11.67;;;5.10;;
33327;SDS011;19692;52.998;9.116;2023-06-22T07:35:16;8.13;;;5.10;;
33327;SDS011;19692;52.998;9.116;2023-06-22T07:37:42;5.57;;;4.97;;
33327;SDS011;19692;52.998;9.116;2023-06-22T07:40:10;6.13;;;4.93;;
33327;SDS011;19692;52.998;9.116;2023-06-22T07:43:15;5.33;;;4.80;;
33327;SDS011;19692;52.998;9.116;2023-06-22T07:45:48;6.53;;;4.87;;
33327;SDS011;19692;52.998;9.116;2023-06-22T07:48:19;5.40;;;4.60;;
33327;SDS011;19692;52.998;9.116;2023-06-22T07:50:48;5.20;;;4.70;;
33327;SDS011;19692;52.998;9.116;2023-06-22T07:53:22;6.47;;;4.60;;
33327;SDS011;19692;52.998;9.116;2023-06-22T07:55:48;5.93;;;4.40;;
33327;SDS011;19692;52.998;9.116;2023-06-22T07:58:15;4.70;;;4.30;;
33327;SDS011;19692;52.998;9.116;2023-06-22T08:00:43;6.77;;;5.13;;
33327;SDS011;19692;52.998;9.116;2023-06-22T08:03:14;6.97;;;4.80;;
33327;SDS011;19692;52.998;9.116;2023-06-22T08:05:41;5.37;;;4.50;;
33327;SDS011;19692;52.998;9.116;2023-06-22T08:08:09;6.93;;;5.07;;
33327;SDS011;19692;52.998;9.116;2023-06-22T08:10:49;6.30;;;3.97;;
33327;SDS011;19692;52.998;9.116;2023-06-22T08:13:18;5.97;;;4.73;;
33327;SDS011;19692;52.998;9.116;2023-06-22T08:15:44;6.77;;;4.30;;
33327;SDS011;19692;52.998;9.116;2023-06-22T08:18:10;5.10;;;4.70;;
33327;SDS011;19692;52.998;9.116;2023-06-22T08:23:21;5.03;;;4.27;;
33327;SDS011;19692;52.998;9.116;2023-06-22T08:25:47;5.07;;;4.57;;
33327;SDS011;19692;52.998;9.116;2023-06-22T08:28:15;4.87;;;4.37;;
33327;SDS011;19692;52.998;9.116;2023-06-22T08:30:41;4.57;;;4.13;;
33327;SDS011;19692;52.998;9.116;2023-06-22T08:33:09;4.77;;;4.30;;
33327;SDS011;19692;52.998;9.116;2023-06-22T08:35:38;5.40;;;4.50;;
33327;SDS011;19692;52.998;9.116;2023-06-22T08:38:06;4.60;;;4.20;;
33327;SDS011;19692;52.998;9.116;2023-06-22T08:40:48;5.50;;;4.03;;
33327;SDS011;19692;52.998;9.116;2023-06-22T08:43:14;5.10;;;4.60;;
33327;SDS011;19692;52.998;9.116;2023-06-22T08:45:45;5.60;;;5.10;;
33327;SDS011;19692;52.998;9.116;2023-06-22T08:48:16;5.00;;;4.43;;
33327;SDS011;19692;52.998;9.116;2023-06-22T08:50:42;4.50;;;4.10;;
33327;SDS011;19692;52.998;9.116;2023-06-22T08:53:12;4.70;;;4.27;;
33327;SDS011;19692;52.998;9.116;2023-06-22T08:55:41;5.60;;;4.20;;
33327;SDS011;19692;52.998;9.116;2023-06-22T08:58:07;5.03;;;4.07;;
33327;SDS011;19692;52.998;9.116;2023-06-22T09:00:50;4.50;;;3.97;;
33327;SDS011;19692;52.998;9.116;2023-06-22T09:03:16;6.03;;;4.33;;
33327;SDS011;19692;52.998;9.116;2023-06-22T09:06:07;5.13;;;4.67;;
33327;SDS011;19692;52.998;9.116;2023-06-22T09:08:35;5.43;;;4.73;;
33327;SDS011;19692;52.998;9.116;2023-06-22T09:11:02;4.60;;;4.20;;
33327;SDS011;19692;52.998;9.116;2023-06-22T09:13:33;4.80;;;4.40;;
33327;SDS011;19692;52.998;9.116;2023-06-22T09:16:29;5.07;;;4.20;;
33327;SDS011;19692;52.998;9.116;2023-06-22T09:18:55;6.87;;;4.87;;
33327;SDS011;19692;52.998;9.116;2023-06-22T09:21:23;5.07;;;4.60;;
33327;SDS011;19692;52.998;9.116;2023-06-22T09:23:49;5.13;;;4.63;;
33327;SDS011;19692;52.998;9.116;2023-06-22T09:26:18;4.83;;;4.43;;
33327;SDS011;19692;52.998;9.116;2023-06-22T09:28:44;5.37;;;4.60;;
33327;SDS011;19692;52.998;9.116;2023-06-22T09:31:13;5.60;;;5.03;;
33327;SDS011;19692;52.998;9.116;2023-06-22T09:33:39;4.80;;;4.40;;
33327;SDS011;19692;52.998;9.116;2023-06-22T09:36:06;5.07;;;4.67;;
33327;SDS011;19692;52.998;9.116;2023-06-22T09:38:45;5.33;;;4.50;;
33327;SDS011;19692;52.998;9.116;2023-06-22T09:41:26;5.77;;;5.17;;
33327;SDS011;19692;52.998;9.116;2023-06-22T09:43:56;5.67;;;4.73;;
33327;SDS011;19692;52.998;9.116;2023-06-22T09:46:24;4.87;;;4.33;;
33327;SDS011;19692;52.998;9.116;2023-06-22T09:48:53;4.97;;;4.57;;
33327;SDS011;19692;52.998;9.116;2023-06-22T09:51:19;5.63;;;5.13;;
33327;SDS011;19692;52.998;9.116;2023-06-22T09:53:46;4.93;;;4.53;;
33327;SDS011;19692;52.998;9.116;2023-06-22T09:56:12;5.30;;;4.90;;
33327;SDS011;19692;52.998;9.116;2023-06-22T09:58:43;5.17;;;4.60;;
33327;SDS011;19692;52.998;9.116;2023-06-22T10:01:11;5.27;;;4.80;;
33327;SDS011;19692;52.998;9.116;2023-06-22T10:03:39;5.03;;;4.60;;
33327;SDS011;19692;52.998;9.116;2023-06-22T10:06:06;5.77;;;5.17;;
33327;SDS011;19692;52.998;9.116;2023-06-22T10:08:32;5.20;;;4.73;;
33327;SDS011;19692;52.998;9.116;2023-06-22T10:10:58;6.17;;;5.57;;
33327;SDS011;19692;52.998;9.116;2023-06-22T10:13:23;5.13;;;4.63;;
33327;SDS011;19692;52.998;9.116;2023-06-22T10:15:49;5.50;;;5.00;;
33327;SDS011;19692;52.998;9.116;2023-06-22T10:18:17;5.03;;;4.63;;
33327;SDS011;19692;52.998;9.116;2023-06-22T10:20:43;5.37;;;4.87;;
33327;SDS011;19692;52.998;9.116;2023-06-22T10:23:10;5.93;;;4.70;;
33327;SDS011;19692;52.998;9.116;2023-06-22T10:25:35;6.37;;;4.90;;
33327;SDS011;19692;52.998;9.116;2023-06-22T10:28:01;5.17;;;4.77;;
33327;SDS011;19692;52.998;9.116;2023-06-22T10:30:27;5.20;;;4.70;;
33327;SDS011;19692;52.998;9.116;2023-06-22T10:32:54;5.10;;;4.70;;
33327;SDS011;19692;52.998;9.116;2023-06-22T10:35:22;5.23;;;4.83;;
33327;SDS011;19692;52.998;9.116;2023-06-22T10:37:48;5.03;;;4.63;;
33327;SDS011;19692;52.998;9.116;2023-06-22T10:40:14;5.23;;;4.70;;
33327;SDS011;19692;52.998;9.116;2023-06-22T10:42:42;5.10;;;4.70;;
33327;SDS011;19692;52.998;9.116;2023-06-22T10:45:08;5.73;;;5.27;;
33327;SDS011;19692;52.998;9.116;2023-06-22T10:47:34;6.40;;;5.93;;
33327;SDS011;19692;52.998;9.116;2023-06-22T10:50:00;5.70;;;5.20;;
33327;SDS011;19692;52.998;9.116;2023-06-22T10:52:26;5.93;;;5.20;;
33327;SDS011;19692;52.998;9.116;2023-06-22T10:54:52;5.80;;;5.20;;
33327;SDS011;19692;52.998;9.116;2023-06-22T10:57:18;5.97;;;5.47;;
33327;SDS011;19692;52.998;9.116;2023-06-22T10:59:44;5.47;;;4.97;;
33327;SDS011;19692;52.998;9.116;2023-06-22T11:02:17;7.30;;;4.80;;
33327;SDS011;19692;52.998;9.116;2023-06-22T11:04:43;6.07;;;5.47;;
33327;SDS011;19692;52.998;9.116;2023-06-22T11:07:09;5.87;;;5.40;;
33327;SDS011;19692;52.998;9.116;2023-06-22T11:09:35;5.80;;;5.40;;
33327;SDS011;19692;52.998;9.116;2023-06-22T11:12:01;5.93;;;5.33;;
33327;SDS011;19692;52.998;9.116;2023-06-22T11:14:27;6.40;;;5.30;;
33327;SDS011;19692;52.998;9.116;2023-06-22T11:16:52;5.63;;;4.93;;
33327;SDS011;19692;52.998;9.116;2023-06-22T11:19:18;6.03;;;5.43;;
33327;SDS011;19692;52.998;9.116;2023-06-22T11:21:44;6.00;;;5.40;;
33327;SDS011;19692;52.998;9.116;2023-06-22T11:24:10;6.90;;;5.57;;
33327;SDS011;19692;52.998;9.116;2023-06-22T11:26:36;5.90;;;5.40;;
33327;SDS011;19692;52.998;9.116;2023-06-22T11:29:02;5.80;;;5.30;;
33327;SDS011;19692;52.998;9.116;2023-06-22T11:31:31;5.70;;;5.20;;
33327;SDS011;19692;52.998;9.116;2023-06-22T11:33:57;7.20;;;5.57;;
33327;SDS011;19692;52.998;9.116;2023-06-22T11:36:23;6.33;;;5.60;;
33327;SDS011;19692;52.998;9.116;2023-06-22T11:38:50;5.80;;;5.30;;
33327;SDS011;19692;52.998;9.116;2023-06-22T11:41:16;6.23;;;5.63;;
33327;SDS011;19692;52.998;9.116;2023-06-22T11:43:42;6.00;;;5.60;;
33327;SDS011;19692;52.998;9.116;2023-06-22T11:46:07;7.07;;;6.27;;
33327;SDS011;19692;52.998;9.116;2023-06-22T11:48:33;6.13;;;5.63;;
33327;SDS011;19692;52.998;9.116;2023-06-22T11:50:59;6.40;;;5.80;;
33327;SDS011;19692;52.998;9.116;2023-06-22T11:53:26;6.80;;;6.23;;
33327;SDS011;19692;52.998;9.116;2023-06-22T11:55:52;6.43;;;5.80;;
33327;SDS011;19692;52.998;9.116;2023-06-22T11:58:20;6.97;;;6.27;;
33327;SDS011;19692;52.998;9.116;2023-06-22T12:00:46;6.60;;;5.83;;
33327;SDS011;19692;52.998;9.116;2023-06-22T12:03:12;6.67;;;6.00;;
33327;SDS011;19692;52.998;9.116;2023-06-22T12:05:39;6.60;;;6.10;;
33327;SDS011;19692;52.998;9.116;2023-06-22T12:08:05;6.73;;;6.00;;
33327;SDS011;19692;52.998;9.116;2023-06-22T12:10:31;7.23;;;6.60;;
33327;SDS011;19692;52.998;9.116;2023-06-22T12:12:57;9.33;;;6.70;;
33327;SDS011;19692;52.998;9.116;2023-06-22T12:15:24;7.20;;;6.60;;
33327;SDS011;19692;52.998;9.116;2023-06-22T12:17:51;7.10;;;6.50;;
33327;SDS011;19692;52.998;9.116;2023-06-22T12:20:17;8.13;;;7.43;;
33327;SDS011;19692;52.998;9.116;2023-06-22T12:22:43;7.57;;;6.87;;
33327;SDS011;19692;52.998;9.116;2023-06-22T12:25:10;7.83;;;7.20;;
33327;SDS011;19692;52.998;9.116;2023-06-22T12:27:36;8.10;;;7.30;;
33327;SDS011;19692;52.998;9.116;2023-06-22T12:30:02;8.00;;;6.83;;
33327;SDS011;19692;52.998;9.116;2023-06-22T12:32:28;7.83;;;7.10;;
33327;SDS011;19692;52.998;9.116;2023-06-22T12:34:55;8.43;;;7.63;;
33327;SDS011;19692;52.998;9.116;2023-06-22T12:37:21;7.93;;;7.13;;
33327;SDS011;19692;52.998;9.116;2023-06-22T12:39:47;7.97;;;7.27;;
33327;SDS011;19692;52.998;9.116;2023-06-22T12:42:13;8.23;;;7.43;;
33327;SDS011;19692;52.998;9.116;2023-06-22T12:44:40;7.93;;;7.23;;
33327;SDS011;19692;52.998;9.116;2023-06-22T12:47:06;8.67;;;7.80;;
33327;SDS011;19692;52.998;9.116;2023-06-22T12:49:33;8.00;;;7.20;;
33327;SDS011;19692;52.998;9.116;2023-06-22T12:52:02;7.70;;;7.00;;
33327;SDS011;19692;52.998;9.116;2023-06-22T12:54:33;8.50;;;7.20;;
33327;SDS011;19692;52.998;9.116;2023-06-22T12:56:59;7.87;;;7.17;;
33327;SDS011;19692;52.998;9.116;2023-06-22T12:59:25;9.47;;;7.73;;
33327;SDS011;19692;52.998;9.116;2023-06-22T13:01:50;9.07;;;7.23;;
33327;SDS011;19692;52.998;9.116;2023-06-22T13:04:16;7.30;;;6.60;;
33327;SDS011;19692;52.998;9.116;2023-06-22T13:06:45;8.10;;;7.40;;
33327;SDS011;19692;52.998;9.116;2023-06-22T13:09:14;7.93;;;7.23;;
33327;SDS011;19692;52.998;9.116;2023-06-22T13:11:41;8.30;;;7.50;;
33327;SDS011;19692;52.998;9.116;2023-06-22T13:14:10;8.07;;;7.37;;
33327;SDS011;19692;52.998;9.116;2023-06-22T13:16:35;9.97;;;7.20;;
33327;SDS011;19692;52.998;9.116;2023-06-22T13:19:01;8.63;;;7.93;;
33327;SDS011;19692;52.998;9.116;2023-06-22T13:21:27;8.77;;;7.87;;
33327;SDS011;19692;52.998;9.116;2023-06-22T13:23:53;8.20;;;7.53;;
33327;SDS011;19692;52.998;9.116;2023-06-22T13:26:20;8.10;;;7.40;;
33327;SDS011;19692;52.998;9.116;2023-06-22T13:28:46;8.27;;;7.47;;
33327;SDS011;19692;52.998;9.116;2023-06-22T13:31:12;8.13;;;7.43;;
33327;SDS011;19692;52.998;9.116;2023-06-22T13:33:37;8.30;;;7.50;;
33327;SDS011;19692;52.998;9.116;2023-06-22T13:36:05;8.40;;;7.70;;
33327;SDS011;19692;52.998;9.116;2023-06-22T13:38:32;8.90;;;8.00;;
33327;SDS011;19692;52.998;9.116;2023-06-22T13:40:58;8.23;;;7.33;;
33327;SDS011;19692;52.998;9.116;2023-06-22T13:43:26;8.27;;;7.57;;
33327;SDS011;19692;52.998;9.116;2023-06-22T13:45:52;9.73;;;7.67;;
33327;SDS011;19692;52.998;9.116;2023-06-22T13:48:18;8.00;;;7.23;;
33327;SDS011;19692;52.998;9.116;2023-06-22T13:50:43;8.03;;;7.43;;
33327;SDS011;19692;52.998;9.116;2023-06-22T13:53:09;9.13;;;8.03;;
33327;SDS011;19692;52.998;9.116;2023-06-22T13:55:35;7.87;;;7.27;;
33327;SDS011;19692;52.998;9.116;2023-06-22T13:58:01;8.10;;;7.50;;
33327;SDS011;19692;52.998;9.116;2023-06-22T14:00:26;7.70;;;7.07;;
33327;SDS011;19692;52.998;9.116;2023-06-22T14:02:53;7.70;;;7.00;;
33327;SDS011;19692;52.998;9.116;2023-06-22T14:05:19;8.20;;;7.50;;
33327;SDS011;19692;52.998;9.116;2023-06-22T14:07:45;9.30;;;7.57;;
33327;SDS011;19692;52.998;9.116;2023-06-22T14:10:11;8.40;;;7.70;;
33327;SDS011;19692;52.998;9.116;2023-06-22T14:12:37;8.67;;;7.63;;
33327;SDS011;19692;52.998;9.116;2023-06-22T14:15:02;8.47;;;7.67;;
33327;SDS011;19692;52.998;9.116;2023-06-22T14:17:31;8.53;;;7.83;;
33327;SDS011;19692;52.998;9.116;2023-06-22T14:19:57;7.93;;;7.23;;
33327;SDS011;19692;52.998;9.116;2023-06-22T14:22:26;8.00;;;7.30;;
33327;SDS011;19692;52.998;9.116;2023-06-22T14:24:54;8.13;;;7.43;;
33327;SDS011;19692;52.998;9.116;2023-06-22T14:27:21;8.03;;;6.97;;
33327;SDS011;19692;52.998;9.116;2023-06-22T14:29:46;8.20;;;7.40;;
33327;SDS011;19692;52.998;9.116;2023-06-22T14:32:12;7.97;;;7.27;;
33327;SDS011;19692;52.998;9.116;2023-06-22T14:34:38;7.93;;;7.13;;
33327;SDS011;19692;52.998;9.116;2023-06-22T14:37:07;10.17;;;7.30;;
33327;SDS011;19692;52.998;9.116;2023-06-22T14:39:34;8.23;;;7.50;;
33327;SDS011;19692;52.998;9.116;2023-06-22T14:42:00;7.67;;;6.87;;
33327;SDS011;19692;52.998;9.116;2023-06-22T14:44:28;7.80;;;7.10;;
33327;SDS011;19692;52.998;9.116;2023-06-22T14:46:54;7.30;;;6.63;;
33327;SDS011;19692;52.998;9.116;2023-06-22T14:49:21;9.37;;;7.07;;
33327;SDS011;19692;52.998;9.116;2023-06-22T14:51:47;7.67;;;7.07;;
33327;SDS011;19692;52.998;9.116;2023-06-22T14:54:12;9.20;;;7.43;;
33327;SDS011;19692;52.998;9.116;2023-06-22T14:56:38;7.83;;;7.03;;
33327;SDS011;19692;52.998;9.116;2023-06-22T14:59:04;8.33;;;7.17;;